Time;durP1;ratioP1;P1;durP2;ratioP2;P2;SDS_P1;SDS_P2;PMS_P1;PMS_P2;Temp;Humidity;BMP_temperature;BMP_pressure;BME280_temperature;BME280_humidity;BME280_pressure;Samples;Min_cycle;Max_cycle;Signal;HPM_P1;HPM_P2
2023/09/16 00:00:41;;;;;;;64.10;45.40;;;;;;;-128.00;-1.00;-1.00;100703;318;1003107;-37
2023/09/16 00:03:07;;;;;;;94.00;52.10;;;;;;;-128.00;-1.00;-1.00;100894;318;1002837;-34
2023/09/16 00:05:34;;;;;;;25.30;16.10;;;;;;;-128.00;-1.00;-1.00;100962;318;1003216;-30
2023/09/16 00:08:00;;;;;;;50.80;28.90;;;;;;;-128.00;-1.00;-1.00;100762;318;1003856;-27
2023/09/16 00:10:25;;;;;;;125.70;85.80;;;;;;;-128.00;-1.00;-1.00;100929;318;1003150;-31
2023/09/16 00:12:51;;;;;;;78.90;52.20;;;;;;;-128.00;-1.00;-1.00;100793;318;1003931;-34
2023/09/16 00:15:16;;;;;;;70.80;43.70;;;;;;;-128.00;-1.00;-1.00;100787;322;1004345;-30
2023/09/16 00:17:42;;;;;;;145.20;94.90;;;;;;;-128.00;-1.00;-1.00;100728;318;1003447;-31
2023/09/16 00:20:14;;;;;;;53.30;26.60;;;;;;;-128.00;-1.00;-1.00;100817;318;1002233;-30
2023/09/16 00:22:42;;;;;;;54.90;33.40;;;;;;;-128.00;-1.00;-1.00;100729;318;1004284;-30
2023/09/16 00:25:08;;;;;;;26.20;15.10;;;;;;;-128.00;-1.00;-1.00;100813;318;1003695;-30
2023/09/16 00:27:35;;;;;;;56.50;36.30;;;;;;;-128.00;-1.00;-1.00;100767;318;1003932;-29
2023/09/16 00:30:03;;;;;;;76.50;46.00;;;;;;;-128.00;-1.00;-1.00;100835;317;1002882;-32
2023/09/16 00:32:29;;;;;;;12.20;8.80;;;;;;;-128.00;-1.00;-1.00;100933;318;1003808;-34
2023/09/16 00:34:54;;;;;;;69.10;40.40;;;;;;;-128.00;-1.00;-1.00;100911;318;1003290;-30
2023/09/16 01:17:36;;;;;;;27.80;21.50;;;;;;;-100.36;18.68;19985.00;100701;316;2574458;-29
2023/09/16 01:20:10;;;;;;;17.60;12.70;;;;;;;-128.00;-1.00;-1.00;100522;317;1003625;-33
2023/09/16 01:22:38;;;;;;;17.10;13.20;;;;;;;-128.00;-1.00;-1.00;101033;316;1004969;-31
2023/09/16 01:25:07;;;;;;;15.50;10.80;;;;;;;-128.00;-1.00;-1.00;49124;316;7504426;-35
2023/09/16 01:27:34;;;;;;;13.40;11.40;;;;;;;-128.00;-1.00;-1.00;19075;321;7504947;-32
2023/09/16 01:29:59;;;;;;;18.20;10.60;;;;;;;-128.00;-1.00;-1.00;19063;316;7506947;-34
2023/09/16 01:32:30;;;;;;;16.00;10.40;;;;;;;-128.00;-1.00;-1.00;19482;321;7504385;-35
2023/09/16 01:34:56;;;;;;;12.50;10.00;;;;;;;-128.00;-1.00;-1.00;19065;321;7504502;-35
2023/09/16 01:37:22;;;;;;;13.80;10.10;;;;;;;-128.00;-1.00;-1.00;19495;321;7505304;-31
2023/09/16 01:39:52;;;;;;;13.80;8.80;;;;;;;-128.00;-1.00;-1.00;19057;319;7504587;-31
2023/09/16 01:42:17;;;;;;;10.40;7.30;;;;;;;-128.00;-1.00;-1.00;19074;321;7506511;-36
2023/09/16 01:44:43;;;;;;;17.20;10.90;;;;;;;-128.00;-1.00;-1.00;19478;317;7505402;-31
2023/09/16 01:47:09;;;;;;;12.70;9.00;;;;;;;-128.00;-1.00;-1.00;19488;321;7504692;-31
2023/09/16 01:49:36;;;;;;;56.40;30.00;;;;;;;-128.00;-1.00;-1.00;19479;316;7506751;-35
2023/09/16 01:52:02;;;;;;;14.10;10.10;;;;;;;-128.00;-1.00;-1.00;19488;321;7504730;-31
2023/09/16 01:54:28;;;;;;;9.00;6.80;;;;;;;-128.00;-1.00;-1.00;19031;321;7504971;-33
2023/09/16 01:56:54;;;;;;;8.60;6.10;;;;;;;-128.00;-1.00;-1.00;19048;320;7505262;-32
2023/09/16 01:59:19;;;;;;;24.10;13.30;;;;;;;-128.00;-1.00;-1.00;19077;317;7504226;-31
2023/09/16 02:01:46;;;;;;;10.60;6.70;;;;;;;-128.00;-1.00;-1.00;19082;316;7505292;-32
2023/09/16 02:04:12;;;;;;;17.40;6.60;;;;;;;-128.00;-1.00;-1.00;19050;320;7505362;-35
2023/09/16 02:06:38;;;;;;;10.40;6.90;;;;;;;-128.00;-1.00;-1.00;19095;316;7506403;-31
2023/09/16 02:09:04;;;;;;;10.20;6.30;;;;;;;-128.00;-1.00;-1.00;19063;320;7504791;-31
2023/09/16 02:11:31;;;;;;;10.00;6.10;;;;;;;-128.00;-1.00;-1.00;19067;317;7506556;-31
2023/09/16 02:13:58;;;;;;;6.80;5.00;;;;;;;-128.00;-1.00;-1.00;19066;316;7507388;-36
2023/09/16 02:16:24;;;;;;;12.30;5.10;;;;;;;-128.00;-1.00;-1.00;19063;317;7505021;-32
2023/09/16 02:18:49;;;;;;;6.70;4.60;;;;;;;-128.00;-1.00;-1.00;19064;321;7504342;-34
2023/09/16 02:21:15;;;;;;;5.40;4.30;;;;;;;-128.00;-1.00;-1.00;19475;322;7504487;-34
2023/09/16 02:23:42;;;;;;;5.50;3.30;;;;;;;-128.00;-1.00;-1.00;19506;316;7504407;-34
2023/09/16 02:26:08;;;;;;;6.20;4.00;;;;;;;-128.00;-1.00;-1.00;19501;322;7505923;-32
2023/09/16 02:28:34;;;;;;;7.50;3.80;;;;;;;-128.00;-1.00;-1.00;19467;316;7504556;-31
2023/09/16 02:31:00;;;;;;;6.20;4.10;;;;;;;-128.00;-1.00;-1.00;19482;316;7505645;-34
2023/09/16 02:33:26;;;;;;;8.60;3.70;;;;;;;-128.00;-1.00;-1.00;19471;320;7504445;-34
2023/09/16 02:35:53;;;;;;;8.90;4.20;;;;;;;-128.00;-1.00;-1.00;19479;320;7505528;-31
2023/09/16 02:38:19;;;;;;;5.80;4.00;;;;;;;-128.00;-1.00;-1.00;19490;316;7505788;-30
2023/09/16 02:40:45;;;;;;;6.90;4.40;;;;;;;-128.00;-1.00;-1.00;19496;318;7505093;-35
2023/09/16 02:43:11;;;;;;;8.30;4.10;;;;;;;-128.00;-1.00;-1.00;19484;320;7504872;-34
2023/09/16 02:45:39;;;;;;;9.90;5.80;;;;;;;-128.00;-1.00;-1.00;19457;322;7505353;-30
2023/09/16 02:48:05;;;;;;;8.00;4.60;;;;;;;-128.00;-1.00;-1.00;19057;322;7505460;-30
2023/09/16 02:50:34;;;;;;;7.00;4.70;;;;;;;-128.00;-1.00;-1.00;19059;322;7505373;-30
2023/09/16 02:52:59;;;;;;;7.30;4.10;;;;;;;-128.00;-1.00;-1.00;19080;321;7504892;-31
2023/09/16 02:55:27;;;;;;;8.40;5.00;;;;;;;-128.00;-1.00;-1.00;19489;316;7504683;-31
2023/09/16 02:57:54;;;;;;;12.10;4.60;;;;;;;-128.00;-1.00;-1.00;19035;318;7504910;-31
2023/09/16 03:00:20;;;;;;;6.90;4.70;;;;;;;-128.00;-1.00;-1.00;19041;318;7505490;-35
2023/09/16 03:02:50;;;;;;;5.90;4.00;;;;;;;-128.00;-1.00;-1.00;19073;316;7505221;-35
2023/09/16 03:05:16;;;;;;;8.70;5.70;;;;;;;-128.00;-1.00;-1.00;19066;320;7506037;-36
2023/09/16 03:07:43;;;;;;;11.20;6.70;;;;;;;-128.00;-1.00;-1.00;19080;316;7504799;-31
2023/09/16 03:10:09;;;;;;;16.80;7.10;;;;;;;-128.00;-1.00;-1.00;19075;316;7506201;-34
2023/09/16 03:12:36;;;;;;;10.80;7.00;;;;;;;-128.00;-1.00;-1.00;20226;316;7505356;-31
2023/09/16 03:15:04;;;;;;;15.40;9.60;;;;;;;-128.00;-1.00;-1.00;19486;316;7505063;-31
2023/09/16 03:17:30;;;;;;;12.00;8.40;;;;;;;-128.00;-1.00;-1.00;19061;322;7505214;-35
2023/09/16 03:19:56;;;;;;;12.00;8.10;;;;;;;-128.00;-1.00;-1.00;19074;316;7506259;-35
2023/09/16 03:22:21;;;;;;;20.00;10.60;;;;;;;-128.00;-1.00;-1.00;19063;316;7505217;-31
2023/09/16 03:24:47;;;;;;;14.50;11.40;;;;;;;-128.00;-1.00;-1.00;19057;316;7506988;-31
2023/09/16 03:27:13;;;;;;;18.60;11.10;;;;;;;-128.00;-1.00;-1.00;19086;316;7504754;-31
2023/09/16 03:29:38;;;;;;;24.80;12.60;;;;;;;-128.00;-1.00;-1.00;19036;318;7504525;-31
2023/09/16 03:32:04;;;;;;;17.60;11.70;;;;;;;-128.00;-1.00;-1.00;19063;316;7504615;-35
2023/09/16 03:34:30;;;;;;;15.50;10.50;;;;;;;-128.00;-1.00;-1.00;19052;316;7506518;-31
2023/09/16 03:36:56;;;;;;;19.40;12.30;;;;;;;-128.00;-1.00;-1.00;19497;316;7504995;-35
2023/09/16 03:39:22;;;;;;;16.90;12.40;;;;;;;-128.00;-1.00;-1.00;19468;316;7504541;-34
2023/09/16 03:41:48;;;;;;;13.20;8.80;;;;;;;-128.00;-1.00;-1.00;19494;322;7505086;-34
2023/09/16 03:44:15;;;;;;;15.80;10.70;;;;;;;-128.00;-1.00;-1.00;19494;316;7504630;-29
2023/09/16 03:46:42;;;;;;;11.60;9.20;;;;;;;-128.00;-1.00;-1.00;20840;322;7504706;-30
2023/09/16 03:49:08;;;;;;;15.70;10.40;;;;;;;-128.00;-1.00;-1.00;19486;316;7505339;-31
2023/09/16 03:51:35;;;;;;;14.10;8.70;;;;;;;-128.00;-1.00;-1.00;19477;316;7504520;-32
2023/09/16 03:54:01;;;;;;;12.10;8.20;;;;;;;-128.00;-1.00;-1.00;19080;316;7504827;-31
2023/09/16 03:56:27;;;;;;;12.00;8.80;;;;;;;-128.00;-1.00;-1.00;19471;322;7505209;-31
2023/09/16 03:58:53;;;;;;;12.10;8.90;;;;;;;-128.00;-1.00;-1.00;19491;316;7504543;-35
2023/09/16 04:01:19;;;;;;;12.30;8.30;;;;;;;-128.00;-1.00;-1.00;19480;316;7505776;-34
2023/09/16 04:03:45;;;;;;;10.70;8.60;;;;;;;-128.00;-1.00;-1.00;19483;320;7504875;-33
2023/09/16 04:06:11;;;;;;;16.90;8.60;;;;;;;-128.00;-1.00;-1.00;19493;320;7505153;-34
2023/09/16 04:08:39;;;;;;;28.70;17.10;;;;;;;-128.00;-1.00;-1.00;45558;322;7504582;-30
2023/09/16 04:11:06;;;;;;;28.70;17.10;;;;;;;-128.00;-1.00;-1.00;20952;316;7504757;-32
2023/09/16 04:13:32;;;;;;;39.70;18.80;;;;;;;-128.00;-1.00;-1.00;19512;319;7504531;-31
2023/09/16 04:15:59;;;;;;;35.40;16.40;;;;;;;-128.00;-1.00;-1.00;19479;322;7504446;-33
2023/09/16 04:18:25;;;;;;;37.90;12.70;;;;;;;-128.00;-1.00;-1.00;19067;321;7504523;-35
2023/09/16 04:20:55;;;;;;;19.30;10.20;;;;;;;-128.00;-1.00;-1.00;20207;316;7505492;-30
2023/09/16 04:23:21;;;;;;;14.30;6.20;;;;;;;-128.00;-1.00;-1.00;88361;319;7353973;-30
2023/09/16 04:25:56;;;;;;;18.80;9.50;;;;;;;-128.00;-1.00;-1.00;61458;316;7504539;-31
2023/09/16 04:28:23;;;;;;;12.10;6.70;;;;;;;-128.00;-1.00;-1.00;42891;316;7355150;-31
2023/09/16 04:30:49;;;;;;;12.80;6.30;;;;;;;-128.00;-1.00;-1.00;21301;317;7504912;-35
2023/09/16 04:33:18;;;;;;;10.80;5.50;;;;;;;-128.00;-1.00;-1.00;19172;316;7504806;-32
2023/09/16 04:35:49;;;;;;;7.00;4.50;;;;;;;-128.00;-1.00;-1.00;65033;316;7504627;-36
2023/09/16 04:38:18;;;;;;;7.70;5.60;;;;;;;-128.00;-1.00;-1.00;54801;316;7505392;-34
2023/09/16 04:40:49;;;;;;;5.70;4.10;;;;;;;-128.00;-1.00;-1.00;25275;321;7504435;-31
2023/09/16 04:43:14;;;;;;;14.90;4.70;;;;;;;-128.00;-1.00;-1.00;19082;316;7506816;-31
2023/09/16 04:45:44;;;;;;;5.10;4.20;;;;;;;-128.00;-1.00;-1.00;19506;316;7504337;-31
2023/09/16 04:48:13;;;;;;;9.90;5.70;;;;;;;-128.00;-1.00;-1.00;22665;320;7504361;-35
2023/09/16 04:50:45;;;;;;;10.50;6.00;;;;;;;-128.00;-1.00;-1.00;21901;322;7504551;-35
2023/09/16 04:53:12;;;;;;;6.80;5.50;;;;;;;-128.00;-1.00;-1.00;20901;322;7504771;-35
2023/09/16 04:55:41;;;;;;;16.60;7.70;;;;;;;-128.00;-1.00;-1.00;19460;317;7504766;-35
2023/09/16 04:58:07;;;;;;;12.20;7.30;;;;;;;-128.00;-1.00;-1.00;19486;316;7505119;-31
2023/09/16 05:00:34;;;;;;;17.00;9.90;;;;;;;-128.00;-1.00;-1.00;19499;316;7505175;-31
2023/09/16 05:03:01;;;;;;;14.30;7.30;;;;;;;-128.00;-1.00;-1.00;20213;316;7504771;-35
2023/09/16 05:05:27;;;;;;;23.10;5.60;;;;;;;-128.00;-1.00;-1.00;19083;316;7505587;-31
2023/09/16 05:07:53;;;;;;;11.00;4.90;;;;;;;-128.00;-1.00;-1.00;19498;316;7504628;-34
2023/09/16 05:10:19;;;;;;;6.50;3.90;;;;;;;-128.00;-1.00;-1.00;19488;316;7505430;-33
2023/09/16 05:12:45;;;;;;;11.20;4.50;;;;;;;-128.00;-1.00;-1.00;19430;318;7505653;-32
2023/09/16 05:15:11;;;;;;;5.60;3.50;;;;;;;-128.00;-1.00;-1.00;19498;322;7507471;-35
2023/09/16 05:17:39;;;;;;;5.00;3.50;;;;;;;-128.00;-1.00;-1.00;19514;316;7504781;-31
2023/09/16 05:20:05;;;;;;;3.80;2.90;;;;;;;-128.00;-1.00;-1.00;19088;316;7504689;-34
2023/09/16 05:22:31;;;;;;;16.20;3.40;;;;;;;-128.00;-1.00;-1.00;19016;322;7504965;-34
2023/09/16 05:24:57;;;;;;;7.90;3.40;;;;;;;-128.00;-1.00;-1.00;19073;320;7504852;-31
2023/09/16 05:27:23;;;;;;;4.50;3.00;;;;;;;-128.00;-1.00;-1.00;19085;320;7504916;-35
2023/09/16 05:29:51;;;;;;;6.40;3.20;;;;;;;-128.00;-1.00;-1.00;19020;322;7507503;-34
2023/09/16 05:32:19;;;;;;;7.60;4.40;;;;;;;-128.00;-1.00;-1.00;19010;316;7506495;-35
2023/09/16 05:34:44;;;;;;;6.10;3.80;;;;;;;-128.00;-1.00;-1.00;19060;316;7505451;-30
2023/09/16 05:37:10;;;;;;;5.00;3.10;;;;;;;-128.00;-1.00;-1.00;19069;322;7506265;-31
2023/09/16 05:39:36;;;;;;;5.60;3.40;;;;;;;-128.00;-1.00;-1.00;19486;320;7504570;-34
2023/09/16 05:42:03;;;;;;;3.10;2.20;;;;;;;-128.00;-1.00;-1.00;19454;318;7504589;-35
2023/09/16 05:44:28;;;;;;;7.80;3.70;;;;;;;-128.00;-1.00;-1.00;19072;321;7504739;-31
2023/09/16 05:46:55;;;;;;;8.00;3.50;;;;;;;-128.00;-1.00;-1.00;19484;320;7505434;-30
2023/09/16 05:49:21;;;;;;;5.30;3.10;;;;;;;-128.00;-1.00;-1.00;19067;316;7506285;-35
2023/09/16 05:51:47;;;;;;;3.00;2.40;;;;;;;-128.00;-1.00;-1.00;19026;316;7504485;-35
2023/09/16 05:54:14;;;;;;;5.30;3.10;;;;;;;-128.00;-1.00;-1.00;19068;316;7506163;-35
2023/09/16 05:56:42;;;;;;;3.70;2.20;;;;;;;-128.00;-1.00;-1.00;19060;316;7505183;-30
2023/09/16 05:59:08;;;;;;;3.70;2.40;;;;;;;-128.00;-1.00;-1.00;19074;316;7504673;-34
2023/09/16 06:01:34;;;;;;;3.10;2.40;;;;;;;-128.00;-1.00;-1.00;19077;316;7506479;-31
2023/09/16 06:04:00;;;;;;;6.40;3.30;;;;;;;-128.00;-1.00;-1.00;19084;322;7504538;-35
2023/09/16 06:06:26;;;;;;;5.70;3.10;;;;;;;-128.00;-1.00;-1.00;19484;316;7505873;-37
2023/09/16 06:08:52;;;;;;;8.30;3.10;;;;;;;-128.00;-1.00;-1.00;19490;318;7505003;-35
2023/09/16 06:11:18;;;;;;;11.30;2.80;;;;;;;-128.00;-1.00;-1.00;19497;316;7505569;-31
2023/09/16 06:13:44;;;;;;;4.30;2.70;;;;;;;-128.00;-1.00;-1.00;19469;320;7504347;-31
2023/09/16 06:16:11;;;;;;;4.20;2.50;;;;;;;-128.00;-1.00;-1.00;19510;316;7504872;-35
2023/09/16 06:18:37;;;;;;;8.00;2.60;;;;;;;-128.00;-1.00;-1.00;19509;316;7504570;-34
2023/09/16 06:21:03;;;;;;;4.30;2.70;;;;;;;-128.00;-1.00;-1.00;19513;316;7505039;-32
2023/09/16 06:23:29;;;;;;;8.90;1.90;;;;;;;-128.00;-1.00;-1.00;19503;321;7505020;-35
2023/09/16 06:25:55;;;;;;;4.00;2.30;;;;;;;-128.00;-1.00;-1.00;19494;316;7504582;-31
2023/09/16 06:28:22;;;;;;;2.90;2.10;;;;;;;-128.00;-1.00;-1.00;19496;322;7505622;-35
2023/09/16 06:30:48;;;;;;;5.00;3.00;;;;;;;-128.00;-1.00;-1.00;19476;322;7505308;-35
2023/09/16 06:33:14;;;;;;;4.70;2.50;;;;;;;-128.00;-1.00;-1.00;19482;316;7505967;-35
2023/09/16 06:35:41;;;;;;;3.30;2.10;;;;;;;-128.00;-1.00;-1.00;19489;316;7505277;-35
2023/09/16 06:38:07;;;;;;;6.20;2.40;;;;;;;-128.00;-1.00;-1.00;19070;320;7506801;-31
2023/09/16 06:40:33;;;;;;;4.20;2.40;;;;;;;-128.00;-1.00;-1.00;19481;316;7504466;-34
2023/09/16 06:42:59;;;;;;;3.50;2.10;;;;;;;-128.00;-1.00;-1.00;19072;320;7504525;-35
2023/09/16 06:45:25;;;;;;;8.10;1.90;;;;;;;-128.00;-1.00;-1.00;19504;320;7505136;-35
2023/09/16 06:47:55;;;;;;;3.90;2.30;;;;;;;-128.00;-1.00;-1.00;19469;318;7505368;-34
2023/09/16 06:50:21;;;;;;;4.60;1.50;;;;;;;-128.00;-1.00;-1.00;19021;318;7505464;-35
2023/09/16 06:52:46;;;;;;;5.80;2.60;;;;;;;-128.00;-1.00;-1.00;19040;322;7505393;-34
2023/09/16 06:55:13;;;;;;;5.30;2.40;;;;;;;-128.00;-1.00;-1.00;19493;316;7504773;-35
2023/09/16 06:57:39;;;;;;;4.70;2.70;;;;;;;-128.00;-1.00;-1.00;19450;318;7504599;-30
2023/09/16 07:00:06;;;;;;;5.60;2.20;;;;;;;-128.00;-1.00;-1.00;19440;321;7506904;-31
2023/09/16 07:02:32;;;;;;;3.50;2.30;;;;;;;-128.00;-1.00;-1.00;19074;316;7505825;-33
2023/09/16 07:04:57;;;;;;;3.50;2.10;;;;;;;-128.00;-1.00;-1.00;19086;316;7506310;-30
2023/09/16 07:07:25;;;;;;;4.60;2.40;;;;;;;-128.00;-1.00;-1.00;19093;316;7505015;-35
2023/09/16 07:09:55;;;;;;;2.80;2.00;;;;;;;-128.00;-1.00;-1.00;19067;320;7504605;-35
2023/09/16 07:12:21;;;;;;;2.30;1.10;;;;;;;-128.00;-1.00;-1.00;19056;318;7504966;-36
2023/09/16 07:14:47;;;;;;;3.70;2.40;;;;;;;-128.00;-1.00;-1.00;19075;320;7504762;-32
2023/09/16 07:17:13;;;;;;;3.30;1.80;;;;;;;-128.00;-1.00;-1.00;19075;316;7506152;-36
2023/09/16 07:19:39;;;;;;;4.70;2.50;;;;;;;-128.00;-1.00;-1.00;19057;316;7504988;-38
2023/09/16 07:22:05;;;;;;;2.30;1.60;;;;;;;-128.00;-1.00;-1.00;19010;322;7505389;-37
2023/09/16 07:24:31;;;;;;;3.90;2.30;;;;;;;-128.00;-1.00;-1.00;19491;320;7504628;-35
2023/09/16 07:26:57;;;;;;;2.50;1.80;;;;;;;-128.00;-1.00;-1.00;19509;322;7504847;-35
2023/09/16 07:29:24;;;;;;;2.40;1.50;;;;;;;-128.00;-1.00;-1.00;19424;318;7505814;-36
2023/09/16 07:31:50;;;;;;;3.90;2.10;;;;;;;-128.00;-1.00;-1.00;19452;317;7505193;-35
2023/09/16 07:34:19;;;;;;;3.50;2.10;;;;;;;-128.00;-1.00;-1.00;19495;316;7504859;-35
2023/09/16 07:36:46;;;;;;;4.90;2.20;;;;;;;-128.00;-1.00;-1.00;19044;316;7505216;-35
2023/09/16 07:39:12;;;;;;;2.20;1.40;;;;;;;-128.00;-1.00;-1.00;19062;320;7504472;-35
2023/09/16 07:41:38;;;;;;;2.90;1.50;;;;;;;-128.00;-1.00;-1.00;19077;322;7504959;-31
2023/09/16 07:44:05;;;;;;;3.70;1.70;;;;;;;-128.00;-1.00;-1.00;19071;316;7504946;-31
2023/09/16 07:46:30;;;;;;;2.50;1.70;;;;;;;-128.00;-1.00;-1.00;19086;317;7505094;-35
2023/09/16 07:48:57;;;;;;;3.90;2.30;;;;;;;-128.00;-1.00;-1.00;19052;316;7504657;-35
2023/09/16 07:51:22;;;;;;;4.60;2.80;;;;;;;-128.00;-1.00;-1.00;19068;316;7504857;-36
2023/09/16 07:53:48;;;;;;;1.70;1.30;;;;;;;-128.00;-1.00;-1.00;19081;316;7505146;-36
2023/09/16 07:56:16;;;;;;;3.70;2.40;;;;;;;-128.00;-1.00;-1.00;19063;316;7505921;-35
2023/09/16 07:58:41;;;;;;;3.50;1.80;;;;;;;-128.00;-1.00;-1.00;19003;317;7505490;-32
2023/09/16 08:01:07;;;;;;;2.30;1.90;;;;;;;-128.00;-1.00;-1.00;19019;317;7504939;-35
2023/09/16 08:03:33;;;;;;;2.80;1.60;;;;;;;-128.00;-1.00;-1.00;19478;316;7504748;-32
2023/09/16 08:05:59;;;;;;;2.80;2.10;;;;;;;-128.00;-1.00;-1.00;19054;320;7505336;-32
2023/09/16 08:08:25;;;;;;;1.50;1.10;;;;;;;-128.00;-1.00;-1.00;19079;316;7505954;-32
2023/09/16 08:10:51;;;;;;;2.10;1.00;;;;;;;-128.00;-1.00;-1.00;19450;316;7505303;-32
2023/09/16 08:13:18;;;;;;;5.00;2.20;;;;;;;-128.00;-1.00;-1.00;19490;322;7504620;-32
2023/09/16 08:15:44;;;;;;;2.10;1.60;;;;;;;-128.00;-1.00;-1.00;19485;320;7505020;-32
2023/09/16 08:18:10;;;;;;;2.50;1.30;;;;;;;-128.00;-1.00;-1.00;19509;320;7504815;-32
2023/09/16 08:20:37;;;;;;;3.60;2.10;;;;;;;-128.00;-1.00;-1.00;19495;320;7504543;-36
2023/09/16 08:23:04;;;;;;;3.70;1.60;;;;;;;-128.00;-1.00;-1.00;19489;322;7506158;-32
2023/09/16 08:25:30;;;;;;;1.90;1.30;;;;;;;-128.00;-1.00;-1.00;19065;316;7505102;-36
2023/09/16 08:27:55;;;;;;;3.30;1.80;;;;;;;-128.00;-1.00;-1.00;19057;322;7506192;-32
2023/09/16 08:30:21;;;;;;;4.00;2.50;;;;;;;-128.00;-1.00;-1.00;19071;316;7505021;-32
2023/09/16 08:32:48;;;;;;;3.00;2.10;;;;;;;-128.00;-1.00;-1.00;19079;322;7504714;-32
2023/09/16 08:35:14;;;;;;;1.70;1.20;;;;;;;-128.00;-1.00;-1.00;19080;321;7506687;-32
2023/09/16 08:37:39;;;;;;;3.50;1.20;;;;;;;-128.00;-1.00;-1.00;19024;321;7504316;-32
2023/09/16 08:40:06;;;;;;;4.60;2.00;;;;;;;-128.00;-1.00;-1.00;19461;321;7504588;-33
2023/09/16 08:42:45;;;;;;;3.60;2.10;;;;;;;-128.00;-1.00;-1.00;19086;316;7505202;-31
2023/09/16 08:45:13;;;;;;;4.10;1.90;;;;;;;-128.00;-1.00;-1.00;19080;322;7506355;-32
2023/09/16 08:47:49;;;;;;;18.80;2.20;;;;;;;-128.00;-1.00;-1.00;19056;320;7504718;-36
2023/09/16 08:50:15;;;;;;;2.50;1.60;;;;;;;-128.00;-1.00;-1.00;21641;316;7504950;-32
2023/09/16 08:52:49;;;;;;;2.10;1.50;;;;;;;-128.00;-1.00;-1.00;65503;316;7504855;-37
2023/09/16 08:55:16;;;;;;;2.50;1.40;;;;;;;-128.00;-1.00;-1.00;85674;316;7503954;-37
2023/09/16 08:57:44;;;;;;;2.50;1.50;;;;;;;-128.00;-1.00;-1.00;101047;316;1005550;-31
2023/09/16 09:00:10;;;;;;;1.80;1.40;;;;;;;-128.00;-1.00;-1.00;101086;316;1004541;-36
2023/09/16 09:02:36;;;;;;;2.80;1.40;;;;;;;-128.00;-1.00;-1.00;101038;316;1002566;-36
2023/09/16 09:05:06;;;;;;;4.50;1.40;;;;;;;-128.00;-1.00;-1.00;101030;316;1003750;-31
2023/09/16 09:07:35;;;;;;;2.70;1.40;;;;;;;-128.00;-1.00;-1.00;101059;316;1003386;-35
2023/09/16 09:10:01;;;;;;;7.00;1.30;;;;;;;-128.00;-1.00;-1.00;100828;318;1003731;-31
2023/09/16 09:12:28;;;;;;;2.10;1.70;;;;;;;-128.00;-1.00;-1.00;101021;320;1002950;-31
2023/09/16 09:14:53;;;;;;;2.60;1.40;;;;;;;-128.00;-1.00;-1.00;101007;316;1003162;-35
2023/09/16 09:17:19;;;;;;;2.20;1.40;;;;;;;-128.00;-1.00;-1.00;101084;316;1003687;-35
2023/09/16 09:19:46;;;;;;;1.80;1.50;;;;;;;-128.00;-1.00;-1.00;100358;316;1004434;-35
2023/09/16 09:22:12;;;;;;;3.70;1.60;;;;;;;-128.00;-1.00;-1.00;100935;316;1004657;-31
2023/09/16 09:24:38;;;;;;;3.20;1.60;;;;;;;-128.00;-1.00;-1.00;101018;316;1002854;-35
2023/09/16 09:27:04;;;;;;;3.40;1.60;;;;;;;-128.00;-1.00;-1.00;100996;316;1004636;-31
2023/09/16 09:29:29;;;;;;;1.90;1.30;;;;;;;-128.00;-1.00;-1.00;101024;316;1003230;-30
2023/09/16 09:31:55;;;;;;;1.30;1.00;;;;;;;-128.00;-1.00;-1.00;101009;316;1004172;-35
2023/09/16 09:34:21;;;;;;;3.50;2.20;;;;;;;-128.00;-1.00;-1.00;101056;316;1003055;-32
2023/09/16 09:36:46;;;;;;;2.10;0.80;;;;;;;-128.00;-1.00;-1.00;101028;316;1003849;-38
2023/09/16 09:39:12;;;;;;;6.70;1.40;;;;;;;-128.00;-1.00;-1.00;101079;316;1003089;-34
2023/09/16 09:41:46;;;;;;;1.80;1.40;;;;;;;-128.00;-1.00;-1.00;101034;316;1002667;-36
2023/09/16 09:44:13;;;;;;;4.50;1.30;;;;;;;-128.00;-1.00;-1.00;101080;316;1002646;-32
2023/09/16 09:46:39;;;;;;;1.50;1.00;;;;;;;-128.00;-1.00;-1.00;100945;316;1003209;-35
2023/09/16 09:49:05;;;;;;;3.70;1.60;;;;;;;-128.00;-1.00;-1.00;101047;316;1002686;-35
2023/09/16 09:51:31;;;;;;;4.70;3.50;;;;;;;-128.00;-1.00;-1.00;101054;316;1002846;-33
2023/09/16 09:53:57;;;;;;;2.90;2.10;;;;;;;-128.00;-1.00;-1.00;101086;316;1004085;-34
2023/09/16 09:56:23;;;;;;;1.60;1.30;;;;;;;-128.00;-1.00;-1.00;101063;316;1003438;-37
2023/09/16 09:58:50;;;;;;;1.70;1.10;;;;;;;-128.00;-1.00;-1.00;100924;316;1003313;-35
2023/09/16 10:01:15;;;;;;;3.10;2.00;;;;;;;-128.00;-1.00;-1.00;101068;316;1002910;-31
2023/09/16 10:03:47;;;;;;;5.20;3.60;;;;;;;-128.00;-1.00;-1.00;101009;316;1003463;-35
2023/09/16 10:06:15;;;;;;;2.70;1.70;;;;;;;-128.00;-1.00;-1.00;101085;316;1003668;-31
2023/09/16 10:08:40;;;;;;;1.80;0.90;;;;;;;-128.00;-1.00;-1.00;100925;316;1003192;-31
2023/09/16 10:11:06;;;;;;;1.90;1.60;;;;;;;-128.00;-1.00;-1.00;101012;316;1004917;-35
2023/09/16 10:13:31;;;;;;;;;;;;;;;-128.00;-1.00;-1.00;101045;316;1005259;-32
2023/09/16 10:16:00;;;;;;;5.70;2.20;;;;;;;-128.00;-1.00;-1.00;100839;316;1004929;-32
2023/09/16 10:18:27;;;;;;;2.60;1.80;;;;;;;-128.00;-1.00;-1.00;101049;316;1002937;-35
2023/09/16 10:20:54;;;;;;;3.00;1.40;;;;;;;-128.00;-1.00;-1.00;101014;316;1003757;-31
2023/09/16 10:23:20;;;;;;;1.40;0.90;;;;;;;-128.00;-1.00;-1.00;101070;316;1003370;-31
2023/09/16 10:25:46;;;;;;;2.10;1.30;;;;;;;-128.00;-1.00;-1.00;100974;316;1003224;-30
2023/09/16 10:28:12;;;;;;;4.00;2.90;;;;;;;-128.00;-1.00;-1.00;101086;316;1004168;-36
2023/09/16 10:30:38;;;;;;;3.60;2.20;;;;;;;-128.00;-1.00;-1.00;101059;320;1004533;-36
2023/09/16 10:33:05;;;;;;;2.10;1.20;;;;;;;-128.00;-1.00;-1.00;101014;316;1002894;-36
2023/09/16 10:35:31;;;;;;;4.70;2.10;;;;;;;-128.00;-1.00;-1.00;101022;316;1003842;-31
2023/09/16 10:37:59;;;;;;;2.60;1.40;;;;;;;-128.00;-1.00;-1.00;101055;316;1003483;-33
2023/09/16 10:40:25;;;;;;;2.20;1.70;;;;;;;-128.00;-1.00;-1.00;101077;316;1003766;-32
2023/09/16 10:42:52;;;;;;;8.40;1.60;;;;;;;-128.00;-1.00;-1.00;101069;316;1002986;-31
2023/09/16 10:45:17;;;;;;;1.10;0.60;;;;;;;-128.00;-1.00;-1.00;101075;316;1004075;-31
2023/09/16 10:47:45;;;;;;;4.90;0.90;;;;;;;-128.00;-1.00;-1.00;101025;316;1003109;-35
2023/09/16 10:50:10;;;;;;;3.40;2.40;;;;;;;-128.00;-1.00;-1.00;100989;316;1004904;-33
2023/09/16 10:52:52;;;;;;;1.70;1.20;;;;;;;-128.00;-1.00;-1.00;101066;316;1002912;-36
2023/09/16 10:55:34;;;;;;;0.80;0.50;;;;;;;-128.00;-1.00;-1.00;100323;316;1003857;-32
2023/09/16 10:58:08;;;;;;;1.30;0.70;;;;;;;-128.00;-1.00;-1.00;101090;316;1002918;-32
2023/09/16 11:00:39;;;;;;;1.50;0.90;;;;;;;-128.00;-1.00;-1.00;101095;316;1003040;-34
2023/09/16 11:03:05;;;;;;;1.30;1.00;;;;;;;-128.00;-1.00;-1.00;101092;316;1003853;-31
2023/09/16 11:05:32;;;;;;;2.10;1.50;;;;;;;-128.00;-1.00;-1.00;101100;316;1002627;-35
2023/09/16 11:07:58;;;;;;;1.80;1.20;;;;;;;-128.00;-1.00;-1.00;101130;316;1005457;-32
2023/09/16 11:10:23;;;;;;;2.50;1.80;;;;;;;-128.00;-1.00;-1.00;101102;316;1004061;-36
2023/09/16 11:12:49;;;;;;;1.10;0.80;;;;;;;-128.00;-1.00;-1.00;101093;316;1002741;-35
2023/09/16 11:15:15;;;;;;;2.10;1.00;;;;;;;-128.00;-1.00;-1.00;101062;316;1002338;-32
2023/09/16 11:17:41;;;;;;;1.40;1.00;;;;;;;-128.00;-1.00;-1.00;101040;316;1002982;-35
2023/09/16 11:20:11;;;;;;;4.10;1.10;;;;;;;-128.00;-1.00;-1.00;101113;316;1002470;-34
2023/09/16 11:22:38;;;;;;;2.20;1.10;;;;;;;-128.00;-1.00;-1.00;101050;316;1004515;-35
2023/09/16 11:25:04;;;;;;;2.60;1.30;;;;;;;-128.00;-1.00;-1.00;101063;316;1002824;-35
2023/09/16 11:27:32;;;;;;;1.50;1.10;;;;;;;-128.00;-1.00;-1.00;101105;316;1002581;-38
2023/09/16 11:30:12;;;;;;;1.80;1.40;;;;;;;-128.00;-1.00;-1.00;101108;316;1004056;-35
2023/09/16 11:32:51;;;;;;;2.70;2.10;;;;;;;-128.00;-1.00;-1.00;101020;316;1003197;-35
2023/09/16 11:35:16;;;;;;;6.40;1.30;;;;;;;-128.00;-1.00;-1.00;101070;316;1004291;-31
2023/09/16 11:37:43;;;;;;;1.30;1.20;;;;;;;-128.00;-1.00;-1.00;101052;316;1004665;-35
2023/09/16 11:40:09;;;;;;;;;;;;;;;-128.00;-1.00;-1.00;101132;316;1004309;-35
2023/09/16 11:42:35;;;;;;;3.90;1.40;;;;;;;-128.00;-1.00;-1.00;101096;316;1003927;-35
2023/09/16 11:45:01;;;;;;;4.10;1.30;;;;;;;-128.00;-1.00;-1.00;101047;316;1002615;-35
2023/09/16 11:47:30;;;;;;;1.80;1.20;;;;;;;-128.00;-1.00;-1.00;101080;316;1002735;-31
2023/09/16 11:49:56;;;;;;;1.70;1.30;;;;;;;-128.00;-1.00;-1.00;101056;317;1002343;-32
2023/09/16 11:52:22;;;;;;;2.00;1.20;;;;;;;-128.00;-1.00;-1.00;101073;316;1003140;-35
2023/09/16 11:54:47;;;;;;;1.50;1.00;;;;;;;-128.00;-1.00;-1.00;101081;316;1002563;-31
2023/09/16 11:57:14;;;;;;;1.30;0.90;;;;;;;-128.00;-1.00;-1.00;101058;316;1002319;-35
2023/09/16 11:59:39;;;;;;;1.90;1.40;;;;;;;-128.00;-1.00;-1.00;101171;316;1003886;-32
2023/09/16 12:02:05;;;;;;;1.70;1.20;;;;;;;-128.00;-1.00;-1.00;101088;316;1002460;-31
2023/09/16 12:04:34;;;;;;;2.40;1.70;;;;;;;-128.00;-1.00;-1.00;101035;316;1002457;-31